sensor_id;sensor_type;location;lat;lon;timestamp;P1;durP1;ratioP1;P2;durP2;ratioP2
65187;SDS011;51775;51.148;6.950;2023-09-08T00:00:54;2.20;;;1.48;;
65187;SDS011;51775;51.148;6.950;2023-09-08T00:03:20;2.40;;;1.40;;
65187;SDS011;51775;51.148;6.950;2023-09-08T00:05:45;2.00;;;1.50;;
65187;SDS011;51775;51.148;6.950;2023-09-08T00:08:10;2.10;;;1.70;;
65187;SDS011;51775;51.148;6.950;2023-09-08T00:10:35;2.00;;;1.50;;
65187;SDS011;51775;51.148;6.950;2023-09-08T00:13:01;2.80;;;1.60;;
65187;SDS011;51775;51.148;6.950;2023-09-08T00:15:26;2.20;;;1.50;;
65187;SDS011;51775;51.148;6.950;2023-09-08T00:17:51;2.50;;;1.70;;
65187;SDS011;51775;51.148;6.950;2023-09-08T00:20:17;2.42;;;1.75;;
65187;SDS011;51775;51.148;6.950;2023-09-08T00:22:42;2.38;;;1.70;;
65187;SDS011;51775;51.148;6.950;2023-09-08T00:25:07;2.20;;;1.70;;
65187;SDS011;51775;51.148;6.950;2023-09-08T00:27:33;2.55;;;1.60;;
65187;SDS011;51775;51.148;6.950;2023-09-08T00:29:58;2.10;;;1.60;;
65187;SDS011;51775;51.148;6.950;2023-09-08T00:32:23;2.00;;;1.48;;
65187;SDS011;51775;51.148;6.950;2023-09-08T00:34:48;2.30;;;1.70;;
65187;SDS011;51775;51.148;6.950;2023-09-08T00:37:14;2.30;;;1.80;;
65187;SDS011;51775;51.148;6.950;2023-09-08T00:39:39;2.20;;;1.60;;
65187;SDS011;51775;51.148;6.950;2023-09-08T00:42:05;2.05;;;1.50;;
65187;SDS011;51775;51.148;6.950;2023-09-08T00:44:30;2.42;;;1.60;;
65187;SDS011;51775;51.148;6.950;2023-09-08T00:46:56;2.40;;;1.65;;
65187;SDS011;51775;51.148;6.950;2023-09-08T00:49:21;2.47;;;1.90;;
65187;SDS011;51775;51.148;6.950;2023-09-08T00:51:47;2.78;;;1.80;;
65187;SDS011;51775;51.148;6.950;2023-09-08T00:54:12;2.40;;;1.70;;
65187;SDS011;51775;51.148;6.950;2023-09-08T00:56:38;2.00;;;1.55;;
65187;SDS011;51775;51.148;6.950;2023-09-08T00:59:03;2.50;;;1.65;;
65187;SDS011;51775;51.148;6.950;2023-09-08T01:01:29;2.47;;;1.70;;
65187;SDS011;51775;51.148;6.950;2023-09-08T01:03:55;2.45;;;1.73;;
65187;SDS011;51775;51.148;6.950;2023-09-08T01:06:21;2.55;;;1.70;;
65187;SDS011;51775;51.148;6.950;2023-09-08T01:08:46;2.30;;;1.63;;
65187;SDS011;51775;51.148;6.950;2023-09-08T01:11:12;3.45;;;1.70;;
65187;SDS011;51775;51.148;6.950;2023-09-08T01:13:37;2.47;;;1.80;;
65187;SDS011;51775;51.148;6.950;2023-09-08T01:16:03;4.22;;;1.63;;
65187;SDS011;51775;51.148;6.950;2023-09-08T01:18:28;2.10;;;1.60;;
65187;SDS011;51775;51.148;6.950;2023-09-08T01:26:36;2.30;;;1.70;;
65187;SDS011;51775;51.148;6.950;2023-09-08T01:29:05;2.35;;;1.65;;
65187;SDS011;51775;51.148;6.950;2023-09-08T01:31:31;2.63;;;1.60;;
65187;SDS011;51775;51.148;6.950;2023-09-08T01:33:57;2.10;;;1.60;;
65187;SDS011;51775;51.148;6.950;2023-09-08T01:36:22;2.10;;;1.70;;
65187;SDS011;51775;51.148;6.950;2023-09-08T01:38:48;2.50;;;1.80;;
65187;SDS011;51775;51.148;6.950;2023-09-08T01:41:13;2.40;;;1.70;;
65187;SDS011;51775;51.148;6.950;2023-09-08T01:43:38;2.23;;;1.90;;
65187;SDS011;51775;51.148;6.950;2023-09-08T01:46:03;2.33;;;1.73;;
65187;SDS011;51775;51.148;6.950;2023-09-08T01:48:29;2.65;;;1.60;;
65187;SDS011;51775;51.148;6.950;2023-09-08T01:50:54;2.80;;;1.92;;
65187;SDS011;51775;51.148;6.950;2023-09-08T01:53:19;2.37;;;1.70;;
65187;SDS011;51775;51.148;6.950;2023-09-08T01:55:44;3.00;;;2.00;;
65187;SDS011;51775;51.148;6.950;2023-09-08T01:58:10;2.70;;;1.73;;
65187;SDS011;51775;51.148;6.950;2023-09-08T02:00:35;2.47;;;1.90;;
65187;SDS011;51775;51.148;6.950;2023-09-08T02:03:00;2.40;;;1.80;;
65187;SDS011;51775;51.148;6.950;2023-09-08T02:05:25;2.20;;;1.87;;
65187;SDS011;51775;51.148;6.950;2023-09-08T02:07:51;2.40;;;1.70;;
65187;SDS011;51775;51.148;6.950;2023-09-08T02:10:16;2.40;;;1.80;;
65187;SDS011;51775;51.148;6.950;2023-09-08T02:12:41;3.28;;;2.00;;
65187;SDS011;51775;51.148;6.950;2023-09-08T02:15:07;2.40;;;1.73;;
65187;SDS011;51775;51.148;6.950;2023-09-08T02:17:32;2.50;;;1.80;;
65187;SDS011;51775;51.148;6.950;2023-09-08T02:19:58;2.65;;;1.77;;
65187;SDS011;51775;51.148;6.950;2023-09-08T02:22:23;2.20;;;1.63;;
65187;SDS011;51775;51.148;6.950;2023-09-08T02:24:48;2.70;;;1.90;;
65187;SDS011;51775;51.148;6.950;2023-09-08T02:27:13;2.40;;;1.77;;
65187;SDS011;51775;51.148;6.950;2023-09-08T02:29:39;2.58;;;1.90;;
65187;SDS011;51775;51.148;6.950;2023-09-08T02:32:06;2.92;;;1.70;;
65187;SDS011;51775;51.148;6.950;2023-09-08T02:34:34;2.22;;;1.80;;
65187;SDS011;51775;51.148;6.950;2023-09-08T02:37:02;2.67;;;1.92;;
65187;SDS011;51775;51.148;6.950;2023-09-08T02:39:28;2.25;;;1.70;;
65187;SDS011;51775;51.148;6.950;2023-09-08T02:41:53;2.40;;;1.80;;
65187;SDS011;51775;51.148;6.950;2023-09-08T02:44:18;2.80;;;2.00;;
65187;SDS011;51775;51.148;6.950;2023-09-08T02:46:43;2.90;;;2.10;;
65187;SDS011;51775;51.148;6.950;2023-09-08T02:49:09;2.40;;;1.70;;
65187;SDS011;51775;51.148;6.950;2023-09-08T02:51:34;2.30;;;1.73;;
65187;SDS011;51775;51.148;6.950;2023-09-08T02:53:59;2.63;;;1.97;;
65187;SDS011;51775;51.148;6.950;2023-09-08T02:56:24;2.20;;;1.70;;
65187;SDS011;51775;51.148;6.950;2023-09-08T02:58:50;2.30;;;1.80;;
65187;SDS011;51775;51.148;6.950;2023-09-08T03:01:16;2.90;;;1.92;;
65187;SDS011;51775;51.148;6.950;2023-09-08T03:03:42;2.40;;;1.80;;
65187;SDS011;51775;51.148;6.950;2023-09-08T03:06:08;2.60;;;1.90;;
65187;SDS011;51775;51.148;6.950;2023-09-08T03:08:34;2.65;;;1.98;;
65187;SDS011;51775;51.148;6.950;2023-09-08T03:10:59;3.13;;;1.77;;
65187;SDS011;51775;51.148;6.950;2023-09-08T03:13:25;2.70;;;1.95;;
65187;SDS011;51775;51.148;6.950;2023-09-08T03:15:50;2.60;;;1.80;;
65187;SDS011;51775;51.148;6.950;2023-09-08T03:18:15;2.45;;;1.90;;
65187;SDS011;51775;51.148;6.950;2023-09-08T03:20:40;2.60;;;1.85;;
65187;SDS011;51775;51.148;6.950;2023-09-08T03:23:06;2.97;;;2.10;;
65187;SDS011;51775;51.148;6.950;2023-09-08T03:25:31;2.83;;;1.90;;
65187;SDS011;51775;51.148;6.950;2023-09-08T03:27:56;2.30;;;1.77;;
65187;SDS011;51775;51.148;6.950;2023-09-08T03:30:21;2.78;;;1.90;;
65187;SDS011;51775;51.148;6.950;2023-09-08T03:32:47;2.58;;;1.90;;
65187;SDS011;51775;51.148;6.950;2023-09-08T03:35:12;2.42;;;1.80;;
65187;SDS011;51775;51.148;6.950;2023-09-08T03:37:37;2.67;;;1.92;;
65187;SDS011;51775;51.148;6.950;2023-09-08T03:40:03;2.75;;;1.88;;
65187;SDS011;51775;51.148;6.950;2023-09-08T03:42:29;2.47;;;1.83;;
65187;SDS011;51775;51.148;6.950;2023-09-08T03:44:54;2.70;;;2.00;;
65187;SDS011;51775;51.148;6.950;2023-09-08T03:47:19;2.60;;;2.10;;
65187;SDS011;51775;51.148;6.950;2023-09-08T03:49:44;2.72;;;1.90;;
65187;SDS011;51775;51.148;6.950;2023-09-08T03:52:10;2.95;;;2.20;;
65187;SDS011;51775;51.148;6.950;2023-09-08T03:54:35;2.80;;;2.03;;
65187;SDS011;51775;51.148;6.950;2023-09-08T03:57:00;2.53;;;1.88;;
65187;SDS011;51775;51.148;6.950;2023-09-08T03:59:26;2.42;;;1.73;;
65187;SDS011;51775;51.148;6.950;2023-09-08T04:01:51;3.25;;;1.98;;
65187;SDS011;51775;51.148;6.950;2023-09-08T04:04:16;2.85;;;2.20;;
65187;SDS011;51775;51.148;6.950;2023-09-08T04:06:42;2.63;;;2.03;;
65187;SDS011;51775;51.148;6.950;2023-09-08T04:09:07;2.90;;;1.90;;
65187;SDS011;51775;51.148;6.950;2023-09-08T04:11:32;3.10;;;2.33;;
65187;SDS011;51775;51.148;6.950;2023-09-08T04:13:57;2.75;;;2.10;;
65187;SDS011;51775;51.148;6.950;2023-09-08T04:16:23;2.50;;;2.00;;
65187;SDS011;51775;51.148;6.950;2023-09-08T04:18:48;2.67;;;1.93;;
65187;SDS011;51775;51.148;6.950;2023-09-08T04:21:13;2.77;;;2.00;;
65187;SDS011;51775;51.148;6.950;2023-09-08T04:23:38;3.13;;;2.05;;
65187;SDS011;51775;51.148;6.950;2023-09-08T04:26:03;3.27;;;2.00;;
65187;SDS011;51775;51.148;6.950;2023-09-08T04:28:29;2.70;;;2.10;;
65187;SDS011;51775;51.148;6.950;2023-09-08T04:30:54;2.70;;;2.10;;
65187;SDS011;51775;51.148;6.950;2023-09-08T04:33:19;2.50;;;2.07;;
65187;SDS011;51775;51.148;6.950;2023-09-08T04:35:44;2.88;;;2.13;;
65187;SDS011;51775;51.148;6.950;2023-09-08T04:38:10;2.55;;;1.90;;
65187;SDS011;51775;51.148;6.950;2023-09-08T04:40:35;2.55;;;2.03;;
65187;SDS011;51775;51.148;6.950;2023-09-08T04:43:00;2.88;;;2.15;;
65187;SDS011;51775;51.148;6.950;2023-09-08T04:45:26;2.70;;;2.10;;
65187;SDS011;51775;51.148;6.950;2023-09-08T04:47:51;3.00;;;2.20;;
65187;SDS011;51775;51.148;6.950;2023-09-08T04:50:16;2.70;;;1.92;;
65187;SDS011;51775;51.148;6.950;2023-09-08T04:52:41;2.78;;;2.17;;
65187;SDS011;51775;51.148;6.950;2023-09-08T04:55:07;2.88;;;2.10;;
65187;SDS011;51775;51.148;6.950;2023-09-08T04:57:32;2.35;;;1.90;;
65187;SDS011;51775;51.148;6.950;2023-09-08T04:59:58;2.80;;;2.20;;
65187;SDS011;51775;51.148;6.950;2023-09-08T05:02:23;3.40;;;2.08;;
65187;SDS011;51775;51.148;6.950;2023-09-08T05:04:48;2.88;;;2.20;;
65187;SDS011;51775;51.148;6.950;2023-09-08T05:07:14;3.13;;;2.08;;
65187;SDS011;51775;51.148;6.950;2023-09-08T05:09:39;2.88;;;2.20;;
65187;SDS011;51775;51.148;6.950;2023-09-08T05:12:07;2.65;;;2.10;;
65187;SDS011;51775;51.148;6.950;2023-09-08T05:14:32;2.90;;;2.22;;
65187;SDS011;51775;51.148;6.950;2023-09-08T05:17:00;2.55;;;1.92;;
65187;SDS011;51775;51.148;6.950;2023-09-08T05:19:25;3.03;;;2.38;;
65187;SDS011;51775;51.148;6.950;2023-09-08T05:21:51;3.00;;;2.05;;
65187;SDS011;51775;51.148;6.950;2023-09-08T05:24:16;2.80;;;2.10;;
65187;SDS011;51775;51.148;6.950;2023-09-08T05:26:41;3.13;;;2.30;;
65187;SDS011;51775;51.148;6.950;2023-09-08T05:29:07;2.70;;;2.10;;
65187;SDS011;51775;51.148;6.950;2023-09-08T05:31:32;3.60;;;2.20;;
65187;SDS011;51775;51.148;6.950;2023-09-08T05:33:57;3.83;;;2.10;;
65187;SDS011;51775;51.148;6.950;2023-09-08T05:36:23;3.28;;;2.17;;
65187;SDS011;51775;51.148;6.950;2023-09-08T05:38:48;2.90;;;2.20;;
65187;SDS011;51775;51.148;6.950;2023-09-08T05:41:13;3.40;;;2.50;;
65187;SDS011;51775;51.148;6.950;2023-09-08T05:43:39;3.00;;;2.10;;
65187;SDS011;51775;51.148;6.950;2023-09-08T05:46:04;2.83;;;2.13;;
65187;SDS011;51775;51.148;6.950;2023-09-08T05:48:29;3.30;;;2.20;;
65187;SDS011;51775;51.148;6.950;2023-09-08T05:50:55;2.78;;;2.10;;
65187;SDS011;51775;51.148;6.950;2023-09-08T05:53:20;2.67;;;2.10;;
65187;SDS011;51775;51.148;6.950;2023-09-08T05:55:45;2.83;;;2.13;;
65187;SDS011;51775;51.148;6.950;2023-09-08T05:58:10;3.20;;;2.40;;
65187;SDS011;51775;51.148;6.950;2023-09-08T06:00:36;2.60;;;1.90;;
65187;SDS011;51775;51.148;6.950;2023-09-08T06:03:01;3.20;;;2.30;;
65187;SDS011;51775;51.148;6.950;2023-09-08T06:05:26;3.00;;;2.10;;
65187;SDS011;51775;51.148;6.950;2023-09-08T06:07:52;2.85;;;2.10;;
65187;SDS011;51775;51.148;6.950;2023-09-08T06:10:17;2.80;;;2.20;;
65187;SDS011;51775;51.148;6.950;2023-09-08T06:12:42;2.75;;;2.10;;
65187;SDS011;51775;51.148;6.950;2023-09-08T06:15:07;2.60;;;2.00;;
65187;SDS011;51775;51.148;6.950;2023-09-08T06:17:33;2.80;;;2.20;;
65187;SDS011;51775;51.148;6.950;2023-09-08T06:19:58;2.78;;;2.20;;
65187;SDS011;51775;51.148;6.950;2023-09-08T06:22:23;2.88;;;2.15;;
65187;SDS011;51775;51.148;6.950;2023-09-08T06:24:48;2.60;;;2.00;;
65187;SDS011;51775;51.148;6.950;2023-09-08T06:27:14;2.70;;;2.00;;
65187;SDS011;51775;51.148;6.950;2023-09-08T06:29:39;2.70;;;2.03;;
65187;SDS011;51775;51.148;6.950;2023-09-08T06:32:06;2.70;;;2.10;;
65187;SDS011;51775;51.148;6.950;2023-09-08T06:34:31;2.90;;;2.20;;
65187;SDS011;51775;51.148;6.950;2023-09-08T06:36:57;3.05;;;2.10;;
65187;SDS011;51775;51.148;6.950;2023-09-08T06:39:24;2.83;;;2.15;;
65187;SDS011;51775;51.148;6.950;2023-09-08T06:41:50;2.63;;;2.10;;
65187;SDS011;51775;51.148;6.950;2023-09-08T06:44:15;2.67;;;2.05;;
65187;SDS011;51775;51.148;6.950;2023-09-08T06:46:41;2.85;;;2.15;;
65187;SDS011;51775;51.148;6.950;2023-09-08T06:49:06;3.90;;;2.30;;
65187;SDS011;51775;51.148;6.950;2023-09-08T06:51:31;3.38;;;2.25;;
65187;SDS011;51775;51.148;6.950;2023-09-08T06:53:57;2.70;;;2.00;;
65187;SDS011;51775;51.148;6.950;2023-09-08T06:56:22;2.90;;;2.20;;
65187;SDS011;51775;51.148;6.950;2023-09-08T06:58:47;2.72;;;2.00;;
65187;SDS011;51775;51.148;6.950;2023-09-08T07:01:13;2.50;;;1.90;;
65187;SDS011;51775;51.148;6.950;2023-09-08T07:03:38;2.80;;;2.00;;
65187;SDS011;51775;51.148;6.950;2023-09-08T07:06:03;3.25;;;2.20;;
65187;SDS011;51775;51.148;6.950;2023-09-08T07:08:28;3.13;;;2.40;;
65187;SDS011;51775;51.148;6.950;2023-09-08T07:10:54;2.72;;;2.20;;
65187;SDS011;51775;51.148;6.950;2023-09-08T07:13:19;3.17;;;2.00;;
65187;SDS011;51775;51.148;6.950;2023-09-08T07:15:44;2.90;;;2.28;;
65187;SDS011;51775;51.148;6.950;2023-09-08T07:18:10;2.67;;;2.00;;
65187;SDS011;51775;51.148;6.950;2023-09-08T07:20:35;3.43;;;2.00;;
65187;SDS011;51775;51.148;6.950;2023-09-08T07:23:00;3.10;;;2.10;;
65187;SDS011;51775;51.148;6.950;2023-09-08T07:25:25;3.17;;;2.22;;
65187;SDS011;51775;51.148;6.950;2023-09-08T07:27:51;2.70;;;2.13;;
65187;SDS011;51775;51.148;6.950;2023-09-08T07:30:16;3.97;;;2.30;;
65187;SDS011;51775;51.148;6.950;2023-09-08T07:32:41;3.13;;;2.30;;
65187;SDS011;51775;51.148;6.950;2023-09-08T07:35:06;2.75;;;2.20;;
65187;SDS011;51775;51.148;6.950;2023-09-08T07:37:32;2.90;;;2.10;;
65187;SDS011;51775;51.148;6.950;2023-09-08T07:39:57;2.80;;;2.10;;
65187;SDS011;51775;51.148;6.950;2023-09-08T07:42:22;3.38;;;2.17;;
65187;SDS011;51775;51.148;6.950;2023-09-08T07:44:48;2.63;;;2.03;;
65187;SDS011;51775;51.148;6.950;2023-09-08T07:47:13;2.45;;;1.98;;
65187;SDS011;51775;51.148;6.950;2023-09-08T07:49:38;2.97;;;2.10;;
65187;SDS011;51775;51.148;6.950;2023-09-08T07:52:03;3.17;;;2.45;;
65187;SDS011;51775;51.148;6.950;2023-09-08T07:54:29;2.78;;;2.20;;
65187;SDS011;51775;51.148;6.950;2023-09-08T07:56:55;3.45;;;2.35;;
65187;SDS011;51775;51.148;6.950;2023-09-08T07:59:20;3.40;;;2.20;;
65187;SDS011;51775;51.148;6.950;2023-09-08T08:01:45;2.50;;;2.00;;
65187;SDS011;51775;51.148;6.950;2023-09-08T08:04:10;3.20;;;2.10;;
65187;SDS011;51775;51.148;6.950;2023-09-08T08:06:36;3.30;;;2.20;;
65187;SDS011;51775;51.148;6.950;2023-09-08T08:09:02;2.80;;;2.15;;
65187;SDS011;51775;51.148;6.950;2023-09-08T08:11:27;2.92;;;2.28;;
65187;SDS011;51775;51.148;6.950;2023-09-08T08:13:52;3.53;;;2.20;;
65187;SDS011;51775;51.148;6.950;2023-09-08T08:16:18;3.65;;;2.35;;
65187;SDS011;51775;51.148;6.950;2023-09-08T08:18:43;2.72;;;2.10;;
65187;SDS011;51775;51.148;6.950;2023-09-08T08:21:08;2.53;;;2.00;;
65187;SDS011;51775;51.148;6.950;2023-09-08T08:23:33;2.70;;;1.95;;
65187;SDS011;51775;51.148;6.950;2023-09-08T08:25:59;2.90;;;2.17;;
65187;SDS011;51775;51.148;6.950;2023-09-08T08:28:25;2.70;;;2.05;;
65187;SDS011;51775;51.148;6.950;2023-09-08T08:30:50;2.90;;;2.08;;
65187;SDS011;51775;51.148;6.950;2023-09-08T08:33:16;3.55;;;2.08;;
65187;SDS011;51775;51.148;6.950;2023-09-08T08:35:46;3.15;;;2.20;;
65187;SDS011;51775;51.148;6.950;2023-09-08T08:38:16;2.65;;;2.08;;
65187;SDS011;51775;51.148;6.950;2023-09-08T08:40:42;2.70;;;1.90;;
65187;SDS011;51775;51.148;6.950;2023-09-08T08:43:07;2.70;;;2.00;;
65187;SDS011;51775;51.148;6.950;2023-09-08T08:45:32;2.70;;;2.10;;
65187;SDS011;51775;51.148;6.950;2023-09-08T08:47:59;2.97;;;2.17;;
65187;SDS011;51775;51.148;6.950;2023-09-08T08:50:24;3.70;;;2.40;;
65187;SDS011;51775;51.148;6.950;2023-09-08T08:52:50;3.05;;;2.10;;
65187;SDS011;51775;51.148;6.950;2023-09-08T08:55:16;2.63;;;2.17;;
65187;SDS011;51775;51.148;6.950;2023-09-08T08:57:41;3.00;;;1.95;;
65187;SDS011;51775;51.148;6.950;2023-09-08T09:00:08;2.75;;;2.10;;
65187;SDS011;51775;51.148;6.950;2023-09-08T09:02:36;2.53;;;1.88;;
65187;SDS011;51775;51.148;6.950;2023-09-08T09:05:04;2.78;;;2.00;;
65187;SDS011;51775;51.148;6.950;2023-09-08T09:07:30;2.08;;;1.67;;
65187;SDS011;51775;51.148;6.950;2023-09-08T09:09:57;3.03;;;2.20;;
65187;SDS011;51775;51.148;6.950;2023-09-08T09:12:22;2.90;;;2.10;;
65187;SDS011;51775;51.148;6.950;2023-09-08T09:14:47;2.95;;;1.90;;
65187;SDS011;51775;51.148;6.950;2023-09-08T09:17:13;2.58;;;1.95;;
65187;SDS011;51775;51.148;6.950;2023-09-08T09:19:39;2.90;;;2.10;;
65187;SDS011;51775;51.148;6.950;2023-09-08T09:22:04;2.65;;;2.00;;
65187;SDS011;51775;51.148;6.950;2023-09-08T09:24:33;2.80;;;2.00;;
65187;SDS011;51775;51.148;6.950;2023-09-08T09:27:03;2.80;;;2.10;;
65187;SDS011;51775;51.148;6.950;2023-09-08T09:29:29;2.63;;;1.92;;
65187;SDS011;51775;51.148;6.950;2023-09-08T09:34:21;2.75;;;2.00;;
65187;SDS011;51775;51.148;6.950;2023-09-08T09:36:48;2.60;;;2.00;;
65187;SDS011;51775;51.148;6.950;2023-09-08T09:39:16;2.65;;;1.95;;
65187;SDS011;51775;51.148;6.950;2023-09-08T09:41:46;2.25;;;1.80;;
65187;SDS011;51775;51.148;6.950;2023-09-08T09:44:12;2.40;;;1.80;;
65187;SDS011;51775;51.148;6.950;2023-09-08T09:46:37;2.92;;;2.10;;
65187;SDS011;51775;51.148;6.950;2023-09-08T09:49:02;2.50;;;1.90;;
65187;SDS011;51775;51.148;6.950;2023-09-08T09:51:28;2.60;;;2.00;;
65187;SDS011;51775;51.148;6.950;2023-09-08T09:53:56;2.60;;;2.00;;
65187;SDS011;51775;51.148;6.950;2023-09-08T09:56:22;2.70;;;2.00;;
65187;SDS011;51775;51.148;6.950;2023-09-08T09:58:47;2.75;;;2.00;;
65187;SDS011;51775;51.148;6.950;2023-09-08T10:01:13;2.90;;;2.13;;
65187;SDS011;51775;51.148;6.950;2023-09-08T10:03:41;2.70;;;1.90;;
65187;SDS011;51775;51.148;6.950;2023-09-08T10:06:08;2.35;;;1.90;;
65187;SDS011;51775;51.148;6.950;2023-09-08T10:08:35;2.58;;;1.90;;
65187;SDS011;51775;51.148;6.950;2023-09-08T10:11:00;2.72;;;2.08;;
65187;SDS011;51775;51.148;6.950;2023-09-08T10:13:30;2.40;;;1.90;;
65187;SDS011;51775;51.148;6.950;2023-09-08T10:15:58;2.40;;;1.90;;
65187;SDS011;51775;51.148;6.950;2023-09-08T10:18:25;2.63;;;1.90;;
65187;SDS011;51775;51.148;6.950;2023-09-08T10:20:53;2.65;;;2.00;;
65187;SDS011;51775;51.148;6.950;2023-09-08T10:25:59;2.42;;;1.80;;
65187;SDS011;51775;51.148;6.950;2023-09-08T10:28:28;2.42;;;1.77;;
65187;SDS011;51775;51.148;6.950;2023-09-08T10:30:53;2.30;;;1.80;;
65187;SDS011;51775;51.148;6.950;2023-09-08T10:33:19;2.50;;;1.85;;
65187;SDS011;51775;51.148;6.950;2023-09-08T10:35:45;2.50;;;1.88;;
65187;SDS011;51775;51.148;6.950;2023-09-08T10:38:21;2.67;;;1.95;;
65187;SDS011;51775;51.148;6.950;2023-09-08T10:43:14;2.45;;;1.73;;
65187;SDS011;51775;51.148;6.950;2023-09-08T10:45:39;2.40;;;1.90;;
65187;SDS011;51775;51.148;6.950;2023-09-08T10:48:05;2.40;;;1.70;;
65187;SDS011;51775;51.148;6.950;2023-09-08T10:50:32;2.47;;;1.80;;
65187;SDS011;51775;51.148;6.950;2023-09-08T10:53:05;2.40;;;1.83;;
65187;SDS011;51775;51.148;6.950;2023-09-08T10:58:08;2.92;;;1.88;;
65187;SDS011;51775;51.148;6.950;2023-09-08T11:00:44;2.17;;;1.73;;
65187;SDS011;51775;51.148;6.950;2023-09-08T11:03:25;2.67;;;1.92;;
65187;SDS011;51775;51.148;6.950;2023-09-08T11:06:07;2.42;;;1.88;;
65187;SDS011;51775;51.148;6.950;2023-09-08T11:11:38;2.67;;;2.00;;
65187;SDS011;51775;51.148;6.950;2023-09-08T11:14:04;2.47;;;1.80;;
65187;SDS011;51775;51.148;6.950;2023-09-08T11:16:44;3.50;;;1.90;;
65187;SDS011;51775;51.148;6.950;2023-09-08T11:19:12;2.50;;;1.85;;
65187;SDS011;51775;51.148;6.950;2023-09-08T11:21:53;2.58;;;1.85;;
65187;SDS011;51775;51.148;6.950;2023-09-08T11:24:27;2.28;;;1.80;;
65187;SDS011;51775;51.148;6.950;2023-09-08T11:27:10;2.97;;;1.90;;
65187;SDS011;51775;51.148;6.950;2023-09-08T11:29:36;2.58;;;1.83;;
65187;SDS011;51775;51.148;6.950;2023-09-08T11:32:04;2.50;;;1.80;;
65187;SDS011;51775;51.148;6.950;2023-09-08T11:34:51;2.63;;;1.77;;
65187;SDS011;51775;51.148;6.950;2023-09-08T11:37:40;2.45;;;1.70;;
65187;SDS011;51775;51.148;6.950;2023-09-08T11:40:06;2.20;;;1.60;;
65187;SDS011;51775;51.148;6.950;2023-09-08T11:42:32;2.13;;;1.60;;
65187;SDS011;51775;51.148;6.950;2023-09-08T11:44:58;2.50;;;1.70;;
65187;SDS011;51775;51.148;6.950;2023-09-08T11:47:25;2.45;;;1.75;;
65187;SDS011;51775;51.148;6.950;2023-09-08T11:49:52;2.20;;;1.60;;
65187;SDS011;51775;51.148;6.950;2023-09-08T11:52:17;2.45;;;1.65;;
65187;SDS011;51775;51.148;6.950;2023-09-08T11:54:43;2.38;;;1.70;;
65187;SDS011;51775;51.148;6.950;2023-09-08T11:57:08;2.63;;;1.75;;
65187;SDS011;51775;51.148;6.950;2023-09-08T11:59:36;2.50;;;1.70;;
65187;SDS011;51775;51.148;6.950;2023-09-08T12:02:02;2.38;;;1.67;;
65187;SDS011;51775;51.148;6.950;2023-09-08T12:04:30;2.65;;;1.70;;
65187;SDS011;51775;51.148;6.950;2023-09-08T12:10:42;1.88;;;1.52;;
65187;SDS011;51775;51.148;6.950;2023-09-08T12:13:08;2.65;;;1.80;;
65187;SDS011;51775;51.148;6.950;2023-09-08T12:15:34;2.40;;;1.77;;
65187;SDS011;51775;51.148;6.950;2023-09-08T12:18:01;2.30;;;1.70;;
65187;SDS011;51775;51.148;6.950;2023-09-08T12:20:27;2.50;;;1.80;;
65187;SDS011;51775;51.148;6.950;2023-09-08T12:22:53;2.30;;;1.80;;
65187;SDS011;51775;51.148;6.950;2023-09-08T12:25:18;2.38;;;1.70;;
65187;SDS011;51775;51.148;6.950;2023-09-08T12:27:44;2.40;;;1.70;;
65187;SDS011;51775;51.148;6.950;2023-09-08T12:30:15;2.30;;;1.60;;
65187;SDS011;51775;51.148;6.950;2023-09-08T12:32:41;2.35;;;1.70;;
65187;SDS011;51775;51.148;6.950;2023-09-08T12:35:07;2.10;;;1.50;;
65187;SDS011;51775;51.148;6.950;2023-09-08T12:37:32;2.20;;;1.70;;
65187;SDS011;51775;51.148;6.950;2023-09-08T12:40:00;2.10;;;1.60;;
65187;SDS011;51775;51.148;6.950;2023-09-08T12:42:26;2.40;;;1.77;;
65187;SDS011;51775;51.148;6.950;2023-09-08T12:44:51;2.58;;;1.80;;
65187;SDS011;51775;51.148;6.950;2023-09-08T12:47:16;2.20;;;1.60;;
65187;SDS011;51775;51.148;6.950;2023-09-08T12:49:42;2.38;;;1.67;;
65187;SDS011;51775;51.148;6.950;2023-09-08T12:52:07;2.45;;;1.60;;
65187;SDS011;51775;51.148;6.950;2023-09-08T12:54:38;2.70;;;1.80;;
65187;SDS011;51775;51.148;6.950;2023-09-08T12:57:04;2.30;;;1.70;;
65187;SDS011;51775;51.148;6.950;2023-09-08T12:59:29;2.10;;;1.60;;
65187;SDS011;51775;51.148;6.950;2023-09-08T13:01:54;2.08;;;1.65;;
65187;SDS011;51775;51.148;6.950;2023-09-08T13:04:23;2.45;;;1.50;;
65187;SDS011;51775;51.148;6.950;2023-09-08T13:06:48;1.90;;;1.45;;
65187;SDS011;51775;51.148;6.950;2023-09-08T13:09:14;2.42;;;1.80;;
65187;SDS011;51775;51.148;6.950;2023-09-08T13:11:39;2.10;;;1.50;;
65187;SDS011;51775;51.148;6.950;2023-09-08T13:14:05;2.33;;;1.58;;
65187;SDS011;51775;51.148;6.950;2023-09-08T13:16:30;2.30;;;1.90;;
65187;SDS011;51775;51.148;6.950;2023-09-08T13:18:55;2.22;;;1.63;;
65187;SDS011;51775;51.148;6.950;2023-09-08T13:21:21;2.28;;;1.60;;
65187;SDS011;51775;51.148;6.950;2023-09-08T13:23:46;2.40;;;1.65;;
65187;SDS011;51775;51.148;6.950;2023-09-08T13:26:11;2.00;;;1.48;;
65187;SDS011;51775;51.148;6.950;2023-09-08T13:28:37;2.30;;;1.60;;
65187;SDS011;51775;51.148;6.950;2023-09-08T13:31:02;2.10;;;1.63;;
65187;SDS011;51775;51.148;6.950;2023-09-08T13:33:27;1.83;;;1.40;;
65187;SDS011;51775;51.148;6.950;2023-09-08T13:35:52;2.70;;;1.67;;
65187;SDS011;51775;51.148;6.950;2023-09-08T13:38:18;2.13;;;1.60;;
65187;SDS011;51775;51.148;6.950;2023-09-08T13:40:43;2.03;;;1.60;;
65187;SDS011;51775;51.148;6.950;2023-09-08T13:43:08;2.00;;;1.50;;
65187;SDS011;51775;51.148;6.950;2023-09-08T13:45:34;1.80;;;1.40;;
65187;SDS011;51775;51.148;6.950;2023-09-08T13:47:59;2.17;;;1.52;;
65187;SDS011;51775;51.148;6.950;2023-09-08T13:50:24;2.03;;;1.50;;
65187;SDS011;51775;51.148;6.950;2023-09-08T13:52:49;2.22;;;1.73;;
65187;SDS011;51775;51.148;6.950;2023-09-08T13:55:15;2.00;;;1.50;;
65187;SDS011;51775;51.148;6.950;2023-09-08T13:57:40;2.58;;;1.80;;
65187;SDS011;51775;51.148;6.950;2023-09-08T14:00:05;2.00;;;1.60;;
65187;SDS011;51775;51.148;6.950;2023-09-08T14:02:31;2.08;;;1.52;;
65187;SDS011;51775;51.148;6.950;2023-09-08T14:04:56;2.43;;;1.70;;
65187;SDS011;51775;51.148;6.950;2023-09-08T14:07:22;1.90;;;1.50;;
65187;SDS011;51775;51.148;6.950;2023-09-08T14:09:47;1.95;;;1.30;;
65187;SDS011;51775;51.148;6.950;2023-09-08T14:12:12;2.80;;;1.60;;
65187;SDS011;51775;51.148;6.950;2023-09-08T14:14:38;2.10;;;1.50;;
65187;SDS011;51775;51.148;6.950;2023-09-08T14:17:03;2.28;;;1.45;;
65187;SDS011;51775;51.148;6.950;2023-09-08T14:19:28;2.00;;;1.50;;
65187;SDS011;51775;51.148;6.950;2023-09-08T14:21:56;1.98;;;1.50;;
65187;SDS011;51775;51.148;6.950;2023-09-08T14:24:22;1.80;;;1.50;;
65187;SDS011;51775;51.148;6.950;2023-09-08T14:26:48;2.10;;;1.50;;
65187;SDS011;51775;51.148;6.950;2023-09-08T14:29:13;2.15;;;1.55;;
65187;SDS011;51775;51.148;6.950;2023-09-08T14:31:39;1.77;;;1.35;;
65187;SDS011;51775;51.148;6.950;2023-09-08T14:34:04;2.20;;;1.50;;
65187;SDS011;51775;51.148;6.950;2023-09-08T14:36:29;1.95;;;1.50;;
65187;SDS011;51775;51.148;6.950;2023-09-08T14:38:54;2.20;;;1.60;;
65187;SDS011;51775;51.148;6.950;2023-09-08T14:41:20;1.90;;;1.50;;
65187;SDS011;51775;51.148;6.950;2023-09-08T14:43:45;2.17;;;1.50;;
65187;SDS011;51775;51.148;6.950;2023-09-08T14:46:10;2.25;;;1.52;;
65187;SDS011;51775;51.148;6.950;2023-09-08T14:48:36;2.15;;;1.60;;
65187;SDS011;51775;51.148;6.950;2023-09-08T14:51:01;1.80;;;1.33;;
65187;SDS011;51775;51.148;6.950;2023-09-08T14:53:26;1.90;;;1.50;;
65187;SDS011;51775;51.148;6.950;2023-09-08T14:55:52;2.00;;;1.50;;
65187;SDS011;51775;51.148;6.950;2023-09-08T14:58:17;1.90;;;1.50;;
65187;SDS011;51775;51.148;6.950;2023-09-08T15:00:44;2.03;;;1.50;;
65187;SDS011;51775;51.148;6.950;2023-09-08T15:03:09;2.40;;;1.60;;